ilmateenistus.ee keskkonnaagentuur.ee
EETN Таллинн
FTEO31 EETN 161700
TAF EETN 161700Z 1618/1718 VRB02KT 8000 OVC015 TEMPO 1618/1706 3000
    SN BR BKN007 BKN012 TEMPO 1712/1718 2500 SN OVC010=

METAR EETN 162320Z 26003KT 9999 OVC013 M10/M11 Q1019 R08/490395=
Таллинн
EEKA Кярдла
METAR EEKA 162250Z NIL=
Кярдла
EEKE Курессааре
METAR EEKE 162320Z AUTO 01005KT 9999NDV NCD M15/M16 Q1021=
Курессааре
EEPU Пярну
METAR EEPU 162250Z NIL=
Пярну
EETU Тарту
METAR EETU 162320Z AUTO 26004KT 3500 -SN FEW005/// BKN007/// OVC010/// M15/M17 Q1018=
Тарту
EEEI Эмари
METAR EEEI 162250Z VRB02KT 9999 BKN018 M14/M16 Q1020 R06/590195=
Эмари